Anderson Acres, Nevada
Current Conditions -  °F | °C
As of 6:35 AM on Saturday 25 Oct 2014 (Local Time) from KRTS Reporting Station
Clear Clear  
Wind Chill: 57°   Ceiling: Unl
Heat Index: 57°   Visibility: 10mi
Dew Point: 21°   Wind: 26mph
Humidity: 25%   Direction: 220°SW
Pressure: 29.93"   Gusts: 47mph
Location:  39.7378°N, 119.889°W
Report Text: KRTS 251335Z AUTO 22023G41KT 10SM CLR 14/M06 A2993 RMK AO2
Loading
Personal Weather Stations






























Interactive Weather Map New forecast layout! Learn more

10-Day Weather Forecast

Advertisements
Track Severe Weather on mobile